Time;durP1;ratioP1;P1;durP2;ratioP2;P2;SDS_P1;SDS_P2;PMS_P1;PMS_P2;Temp;Humidity;BMP_temperature;BMP_pressure;BME280_temperature;BME280_humidity;BME280_pressure;Samples;Min_cycle;Max_cycle;Signal;HPM_P1;HPM_P2
2022/04/24 00:01:39;;;;;;;27.75;5.40;;;10.80;99.90;;;;;;5025305;28;20783;-79
2022/04/24 00:04:06;;;;;;;8.68;4.10;;;10.70;99.90;;;;;;5023855;28;20208;-76
2022/04/24 00:06:34;;;;;;;3.47;3.25;;;10.70;99.90;;;;;;5023798;28;20257;-76
2022/04/24 00:09:03;;;;;;;42.90;6.75;;;10.70;99.90;;;;;;5024272;28;20225;-76
2022/04/24 00:11:31;;;;;;;4.72;4.00;;;10.60;99.90;;;;;;5026116;28;20211;-76
2022/04/24 00:13:58;;;;;;;1.63;1.52;;;10.60;99.90;;;;;;5022611;28;20251;-76
2022/04/24 00:16:25;;;;;;;2.00;1.83;;;10.50;99.90;;;;;;5020282;28;20223;-77
2022/04/24 00:18:52;;;;;;;3.92;1.10;;;10.60;99.90;;;;;;5022092;28;20226;-76
2022/04/24 00:21:19;;;;;;;1.40;1.30;;;10.70;99.90;;;;;;5022100;28;20553;-77
2022/04/24 00:23:46;;;;;;;1.30;1.30;;;10.80;99.90;;;;;;5025948;28;20230;-77
2022/04/24 00:26:14;;;;;;;1.58;1.17;;;10.80;99.90;;;;;;5025263;28;20195;-74
2022/04/24 00:28:41;;;;;;;1.05;1.05;;;10.80;99.90;;;;;;5022803;28;20290;-76
2022/04/24 00:31:08;;;;;;;1.52;1.27;;;10.90;99.90;;;;;;5026719;28;20289;-78
2022/04/24 00:33:35;;;;;;;1.30;1.20;;;10.90;99.90;;;;;;5023517;28;20222;-75
2022/04/24 00:36:03;;;;;;;1.35;1.10;;;10.90;99.90;;;;;;5021367;28;20207;-76
2022/04/24 00:38:32;;;;;;;1.25;1.17;;;10.90;99.90;;;;;;5021759;28;20219;-80
2022/04/24 00:40:59;;;;;;;1.45;1.10;;;10.80;99.90;;;;;;5019872;28;20254;-78
2022/04/24 00:43:28;;;;;;;1.08;1.08;;;10.80;99.90;;;;;;5026206;28;20268;-78
2022/04/24 00:46:08;;;;;;;1.10;1.10;;;10.80;99.90;;;;;;5025664;28;20253;-77
2022/04/24 00:48:35;;;;;;;1.17;1.05;;;10.80;99.90;;;;;;5024065;28;20227;-77
2022/04/24 00:51:03;;;;;;;1.15;1.05;;;10.80;99.90;;;;;;5020492;28;20257;-76
2022/04/24 00:53:30;;;;;;;1.10;1.10;;;10.80;99.90;;;;;;5021545;28;20902;-77
2022/04/24 00:55:58;;;;;;;1.33;1.23;;;10.90;99.90;;;;;;5022262;28;20200;-78
2022/04/24 00:58:25;;;;;;;1.58;1.10;;;10.90;99.90;;;;;;5022882;28;20963;-76
2022/04/24 01:00:54;;;;;;;1.40;1.30;;;10.80;99.90;;;;;;5021250;28;20204;-78
2022/04/24 01:03:21;;;;;;;1.38;1.30;;;10.90;99.90;;;;;;5023359;28;20309;-76
2022/04/24 01:05:48;;;;;;;1.05;1.00;;;11.00;99.90;;;;;;5025121;28;20200;-76
2022/04/24 01:08:15;;;;;;;1.10;1.10;;;11.10;99.90;;;;;;5022209;28;20223;-76
2022/04/24 01:10:42;;;;;;;1.25;1.10;;;11.10;99.90;;;;;;5022349;28;20237;-81
2022/04/24 01:13:10;;;;;;;1.02;1.02;;;11.10;99.90;;;;;;5021470;28;20274;-77
2022/04/24 01:15:37;;;;;;;1.35;1.25;;;11.10;99.90;;;;;;5023358;28;20200;-78
2022/04/24 01:18:07;;;;;;;1.52;1.30;;;11.10;99.90;;;;;;5020986;28;20274;-77
2022/04/24 01:20:36;;;;;;;0.98;0.98;;;11.00;99.90;;;;;;5022230;28;20218;-77
2022/04/24 01:23:03;;;;;;;1.40;1.30;;;10.90;99.90;;;;;;5022218;28;20215;-78
2022/04/24 01:25:30;;;;;;;1.00;1.00;;;10.90;99.90;;;;;;5020551;28;20270;-77
2022/04/24 01:27:57;;;;;;;1.75;1.42;;;10.80;99.90;;;;;;5021403;28;20226;-78
2022/04/24 01:30:24;;;;;;;1.77;1.30;;;10.80;99.90;;;;;;5024877;28;20345;-79
2022/04/24 01:32:51;;;;;;;2.83;1.52;;;10.80;99.90;;;;;;5020332;28;20216;-78
2022/04/24 01:35:18;;;;;;;1.58;1.50;;;10.90;99.90;;;;;;5018392;28;20218;-76
2022/04/24 01:37:46;;;;;;;1.60;1.20;;;11.00;99.90;;;;;;5021720;28;20287;-77
2022/04/24 01:40:13;;;;;;;1.50;1.27;;;11.00;99.90;;;;;;5019810;28;20625;-78
2022/04/24 01:42:40;;;;;;;1.65;1.50;;;11.00;99.90;;;;;;5019994;28;20223;-80
2022/04/24 01:45:08;;;;;;;1.98;1.38;;;11.10;99.90;;;;;;5022073;28;20203;-76
2022/04/24 01:47:35;;;;;;;1.55;1.45;;;11.20;99.90;;;;;;5020455;28;20223;-77
2022/04/24 01:50:02;;;;;;;1.42;1.33;;;11.20;99.90;;;;;;5021383;28;20223;-78
2022/04/24 01:52:29;;;;;;;2.35;1.25;;;11.20;99.90;;;;;;5021324;28;20228;-79
2022/04/24 01:54:58;;;;;;;2.20;1.42;;;11.20;99.90;;;;;;5022169;28;20224;-77
2022/04/24 01:57:25;;;;;;;1.30;1.27;;;11.20;99.90;;;;;;5023284;28;20647;-79
2022/04/24 01:59:52;;;;;;;1.50;1.40;;;11.10;99.90;;;;;;5026117;28;20198;-76
2022/04/24 02:02:19;;;;;;;3.35;1.52;;;11.10;99.90;;;;;;5015351;28;20207;-78
2022/04/24 02:04:46;;;;;;;1.40;1.30;;;11.10;99.90;;;;;;5021880;28;20249;-78
2022/04/24 02:07:13;;;;;;;1.38;1.27;;;11.10;99.90;;;;;;5020117;28;20677;-74
2022/04/24 02:09:40;;;;;;;2.50;1.45;;;11.10;99.90;;;;;;5021544;28;20215;-75
2022/04/24 02:12:09;;;;;;;1.52;1.27;;;11.10;99.90;;;;;;5020688;28;20200;-77
2022/04/24 02:14:37;;;;;;;3.33;1.52;;;11.10;99.90;;;;;;5019279;28;20216;-77
2022/04/24 02:17:05;;;;;;;1.70;1.20;;;11.00;99.90;;;;;;5023889;28;20223;-77
2022/04/24 02:19:32;;;;;;;1.73;1.33;;;11.00;99.90;;;;;;5022619;28;20216;-77
2022/04/24 02:21:59;;;;;;;1.35;1.00;;;10.90;99.90;;;;;;5024852;28;20206;-76
2022/04/24 02:24:26;;;;;;;1.45;1.02;;;11.00;99.90;;;;;;5017382;28;20220;-77
2022/04/24 02:26:53;;;;;;;2.67;1.10;;;11.00;99.90;;;;;;5025218;28;20569;-77
2022/04/24 02:29:21;;;;;;;1.30;1.25;;;11.00;99.90;;;;;;5023280;28;20228;-79
2022/04/24 02:31:49;;;;;;;1.25;1.00;;;10.90;99.90;;;;;;5023092;28;20256;-77
2022/04/24 02:34:16;;;;;;;1.30;1.20;;;10.80;99.90;;;;;;5021813;28;20252;-79
2022/04/24 02:36:43;;;;;;;1.50;1.40;;;10.80;99.90;;;;;;5023176;28;20269;-77
2022/04/24 02:39:10;;;;;;;1.25;1.10;;;10.70;99.90;;;;;;5023407;28;20223;-79
2022/04/24 02:41:37;;;;;;;1.23;1.13;;;10.70;99.90;;;;;;5021999;28;20195;-76
2022/04/24 02:44:05;;;;;;;2.53;1.50;;;10.60;99.90;;;;;;5023503;28;20215;-81
2022/04/24 02:46:33;;;;;;;1.83;1.45;;;10.60;99.90;;;;;;5024486;28;20211;-78
2022/04/24 02:49:00;;;;;;;1.80;1.27;;;10.50;99.90;;;;;;5020762;28;20216;-77
2022/04/24 02:51:27;;;;;;;0.90;0.90;;;10.50;99.90;;;;;;5026763;28;20559;-77
2022/04/24 02:53:54;;;;;;;3.20;1.42;;;10.50;99.90;;;;;;5022309;28;20227;-78
2022/04/24 02:56:21;;;;;;;1.50;1.40;;;10.60;99.90;;;;;;5027560;28;20199;-76
2022/04/24 02:58:49;;;;;;;1.30;1.20;;;10.60;99.90;;;;;;5029041;28;20785;-78
2022/04/24 03:01:16;;;;;;;1.40;1.40;;;10.60;99.90;;;;;;5025651;28;20222;-79
2022/04/24 03:03:45;;;;;;;1.10;1.10;;;10.70;99.90;;;;;;5025865;28;20219;-75
2022/04/24 03:06:12;;;;;;;1.40;1.30;;;10.70;99.90;;;;;;5025268;28;20199;-76
2022/04/24 03:08:40;;;;;;;3.35;1.35;;;10.60;99.90;;;;;;5026936;28;20270;-76
2022/04/24 03:11:07;;;;;;;1.13;1.08;;;10.50;99.90;;;;;;5024218;28;20209;-77
2022/04/24 03:13:34;;;;;;;1.10;1.10;;;10.40;99.90;;;;;;5027995;28;20219;-76
2022/04/24 03:16:01;;;;;;;3.13;1.27;;;10.30;99.90;;;;;;5025400;28;20204;-77
2022/04/24 03:18:28;;;;;;;2.05;1.60;;;10.30;99.90;;;;;;5023370;28;20284;-78
2022/04/24 03:20:57;;;;;;;1.30;1.25;;;10.30;99.90;;;;;;5023450;28;20203;-75
2022/04/24 03:23:24;;;;;;;1.48;1.10;;;10.30;99.90;;;;;;5026534;28;20238;-77
2022/04/24 03:25:51;;;;;;;2.05;1.30;;;10.30;99.90;;;;;;5026342;28;20677;-77
2022/04/24 03:28:18;;;;;;;3.97;1.33;;;10.40;99.90;;;;;;5027603;28;20314;-77
2022/04/24 03:30:46;;;;;;;3.13;1.20;;;10.40;99.90;;;;;;5024502;28;20733;-77
2022/04/24 03:33:14;;;;;;;1.60;1.38;;;10.60;99.90;;;;;;5026667;28;20576;-76
2022/04/24 03:35:41;;;;;;;4.28;1.25;;;10.70;99.90;;;;;;5021349;28;20220;-79
2022/04/24 03:38:09;;;;;;;2.58;1.58;;;10.70;99.90;;;;;;5023118;28;20224;-77
2022/04/24 03:40:37;;;;;;;8.27;1.60;;;10.50;99.90;;;;;;5027899;28;20207;-77
2022/04/24 03:43:04;;;;;;;1.50;1.40;;;10.30;99.90;;;;;;5026926;28;20232;-79
2022/04/24 03:45:31;;;;;;;1.13;1.13;;;10.20;99.90;;;;;;5023770;28;20258;-80
2022/04/24 03:47:58;;;;;;;2.17;1.33;;;9.90;99.90;;;;;;5024538;28;20262;-76
2022/04/24 03:50:25;;;;;;;1.13;1.10;;;9.60;99.90;;;;;;5025374;28;20200;-77
2022/04/24 03:52:52;;;;;;;1.33;1.20;;;9.30;99.90;;;;;;5025783;28;20246;-76
2022/04/24 03:55:21;;;;;;;1.58;1.42;;;9.10;99.90;;;;;;5021812;28;20622;-77
2022/04/24 03:57:48;;;;;;;1.08;1.08;;;8.90;99.90;;;;;;5022875;28;20231;-76
2022/04/24 04:00:16;;;;;;;3.70;0.98;;;8.70;99.90;;;;;;5047876;23;20224;-79
2022/04/24 04:02:44;;;;;;;1.25;1.15;;;8.60;99.90;;;;;;5025553;28;20191;-78
2022/04/24 04:05:11;;;;;;;1.00;1.00;;;8.50;99.90;;;;;;5029316;28;20192;-78
2022/04/24 04:07:38;;;;;;;0.82;0.82;;;8.40;99.90;;;;;;5022695;28;20204;-78
2022/04/24 04:10:07;;;;;;;1.00;1.00;;;8.40;99.90;;;;;;5025244;28;20211;-79
2022/04/24 04:12:35;;;;;;;1.02;1.02;;;8.30;99.90;;;;;;5026180;28;20225;-79
2022/04/24 04:15:03;;;;;;;0.98;0.98;;;8.40;99.90;;;;;;5023848;28;20220;-78
2022/04/24 04:17:30;;;;;;;1.00;1.00;;;8.40;99.90;;;;;;5028077;28;20246;-80
2022/04/24 04:19:57;;;;;;;1.00;1.00;;;8.60;99.90;;;;;;5027466;28;20224;-80
2022/04/24 04:22:24;;;;;;;1.42;1.33;;;8.60;99.90;;;;;;5028239;28;20191;-80
2022/04/24 04:24:51;;;;;;;1.30;1.30;;;8.60;99.90;;;;;;5027874;28;20235;-79
2022/04/24 04:27:19;;;;;;;0.98;0.98;;;8.60;99.90;;;;;;5028774;28;20751;-79
2022/04/24 04:29:47;;;;;;;1.00;1.00;;;8.60;99.90;;;;;;5024646;28;20231;-79
2022/04/24 04:32:14;;;;;;;1.10;1.10;;;8.60;99.90;;;;;;5029022;28;20199;-79
2022/04/24 04:34:41;;;;;;;1.33;1.33;;;8.60;99.90;;;;;;5027924;28;20242;-78
2022/04/24 04:37:08;;;;;;;1.48;1.38;;;8.50;99.90;;;;;;5027565;28;20197;-79
2022/04/24 04:39:35;;;;;;;1.27;1.27;;;8.30;99.90;;;;;;5028802;28;22797;-79
2022/04/24 04:42:02;;;;;;;1.27;1.27;;;8.30;99.90;;;;;;5025797;28;20255;-78
2022/04/24 04:44:29;;;;;;;1.40;1.40;;;8.40;99.90;;;;;;5026018;28;20220;-77
2022/04/24 04:46:57;;;;;;;1.35;1.25;;;8.50;99.90;;;;;;5030019;28;20619;-79
2022/04/24 04:49:24;;;;;;;1.35;1.25;;;8.50;99.90;;;;;;5027749;28;20586;-80
2022/04/24 04:51:52;;;;;;;1.42;1.23;;;8.60;99.90;;;;;;5028362;28;20203;-78
2022/04/24 04:54:21;;;;;;;1.38;1.38;;;8.60;99.90;;;;;;5028255;28;20287;-77
2022/04/24 04:56:48;;;;;;;1.15;1.15;;;8.70;99.90;;;;;;5027354;28;20199;-79
2022/04/24 04:59:15;;;;;;;1.17;1.17;;;8.70;99.90;;;;;;5027599;28;20230;-79
2022/04/24 05:01:42;;;;;;;1.60;1.42;;;8.80;99.90;;;;;;5027209;28;20204;-80
2022/04/24 05:04:10;;;;;;;1.55;1.52;;;8.80;99.90;;;;;;5026460;28;20949;-79
2022/04/24 05:06:38;;;;;;;1.70;1.60;;;8.70;99.90;;;;;;5028010;28;20581;-77
2022/04/24 05:09:05;;;;;;;1.40;1.30;;;8.60;99.90;;;;;;5028086;28;20580;-79
2022/04/24 05:11:32;;;;;;;1.50;1.50;;;8.60;99.90;;;;;;5029237;28;20283;-79
2022/04/24 05:13:59;;;;;;;1.35;1.35;;;8.60;99.90;;;;;;5025330;28;20280;-79
2022/04/24 05:16:26;;;;;;;1.45;1.45;;;8.60;99.90;;;;;;5025653;28;20229;-79
2022/04/24 05:18:53;;;;;;;1.38;1.35;;;8.60;99.90;;;;;;5023990;28;20239;-79
2022/04/24 05:21:21;;;;;;;1.65;1.52;;;8.60;99.90;;;;;;5025494;28;20207;-79
2022/04/24 05:23:49;;;;;;;1.58;1.50;;;8.60;99.90;;;;;;5028197;28;20230;-79
2022/04/24 05:26:16;;;;;;;1.45;1.35;;;8.70;99.90;;;;;;5029722;28;20249;-79
2022/04/24 05:28:44;;;;;;;1.40;1.40;;;8.90;99.90;;;;;;5025774;28;20227;-80
2022/04/24 05:31:11;;;;;;;1.15;1.05;;;9.20;99.90;;;;;;5027089;28;20302;-79
2022/04/24 05:33:38;;;;;;;1.45;1.35;;;9.30;99.90;;;;;;5028117;28;20211;-79
2022/04/24 05:36:06;;;;;;;1.15;1.00;;;9.40;99.90;;;;;;5030076;28;20310;-78
2022/04/24 05:38:35;;;;;;;1.40;1.40;;;9.50;99.90;;;;;;5028543;28;20281;-78
2022/04/24 05:41:02;;;;;;;1.10;1.10;;;9.60;99.90;;;;;;5027248;28;22178;-79
2022/04/24 05:43:30;;;;;;;1.10;1.10;;;9.70;99.90;;;;;;5026489;28;20219;-78
2022/04/24 05:45:57;;;;;;;1.55;1.45;;;9.70;99.90;;;;;;5025043;28;20195;-78
2022/04/24 05:48:24;;;;;;;1.50;1.40;;;9.60;99.90;;;;;;5026657;28;20254;-80
2022/04/24 05:50:51;;;;;;;1.25;1.25;;;9.40;99.90;;;;;;5029601;28;20222;-78
2022/04/24 05:53:19;;;;;;;1.77;1.67;;;9.40;99.90;;;;;;5027809;28;20202;-77
2022/04/24 05:55:47;;;;;;;1.60;1.50;;;9.50;99.90;;;;;;5025545;28;20212;-80
2022/04/24 05:58:14;;;;;;;1.95;1.58;;;9.60;99.90;;;;;;5024970;28;20198;-80
2022/04/24 06:00:41;;;;;;;1.40;1.30;;;9.90;99.90;;;;;;5031415;28;20285;-78
2022/04/24 06:03:08;;;;;;;1.77;1.10;;;10.10;99.90;;;;;;5033201;28;20729;-79
2022/04/24 06:05:35;;;;;;;1.65;1.30;;;10.20;99.90;;;;;;5029366;28;20191;-79
2022/04/24 06:08:02;;;;;;;1.33;1.30;;;10.20;99.90;;;;;;5027413;28;20195;-80
2022/04/24 06:10:30;;;;;;;1.08;1.08;;;10.20;99.90;;;;;;5032769;28;20215;-80
2022/04/24 06:12:59;;;;;;;1.70;1.60;;;10.20;99.90;;;;;;5032762;28;20235;-77
2022/04/24 06:15:27;;;;;;;1.20;1.20;;;10.20;99.90;;;;;;5032402;28;20222;-77
2022/04/24 06:17:55;;;;;;;1.45;1.45;;;10.00;99.90;;;;;;5030460;28;20294;-81
2022/04/24 06:20:25;;;;;;;1.33;1.20;;;9.80;99.90;;;;;;5024488;28;20725;-79
2022/04/24 06:22:53;;;;;;;1.60;1.50;;;9.70;99.90;;;;;;5029942;28;20201;-79
2022/04/24 06:25:22;;;;;;;1.42;1.33;;;9.60;99.90;;;;;;5029525;28;20215;-78
2022/04/24 06:27:50;;;;;;;1.70;1.42;;;9.70;99.90;;;;;;5033313;28;20273;-78
2022/04/24 06:30:21;;;;;;;2.08;1.80;;;9.80;99.90;;;;;;5029740;28;20219;-80
2022/04/24 06:32:49;;;;;;;2.22;1.73;;;9.80;99.90;;;;;;5031011;28;20301;-80
2022/04/24 06:35:18;;;;;;;5.22;1.77;;;10.10;99.90;;;;;;5028340;28;20285;-78
2022/04/24 06:37:47;;;;;;;1.30;1.20;;;10.30;99.90;;;;;;5034178;28;20202;-79
2022/04/24 06:40:16;;;;;;;1.67;1.33;;;10.70;99.90;;;;;;5032385;28;20216;-78
2022/04/24 06:42:50;;;;;;;1.88;1.42;;;10.60;99.90;;;;;;5027322;28;20195;-78
2022/04/24 06:45:24;;;;;;;2.22;1.50;;;11.00;99.90;;;;;;5028595;28;20285;-80
2022/04/24 06:47:52;;;;;;;0.98;0.98;;;11.00;99.90;;;;;;5035214;28;20196;-80
2022/04/24 06:50:19;;;;;;;1.92;1.45;;;10.90;99.90;;;;;;5026629;28;20232;-79
2022/04/24 06:52:56;;;;;;;1.63;1.52;;;10.70;99.90;;;;;;5040334;28;20576;-80
2022/04/24 06:55:23;;;;;;;1.15;1.10;;;10.60;99.90;;;;;;5029337;28;20269;-79
2022/04/24 06:57:51;;;;;;;1.05;1.05;;;10.50;99.90;;;;;;5034330;28;20207;-79
2022/04/24 07:00:20;;;;;;;1.55;1.45;;;10.40;99.90;;;;;;5028033;28;20228;-80
2022/04/24 07:02:48;;;;;;;1.20;1.20;;;10.50;99.90;;;;;;5025993;28;20199;-79
2022/04/24 07:05:15;;;;;;;1.42;1.33;;;10.50;99.90;;;;;;5027420;28;20211;-80
2022/04/24 07:07:42;;;;;;;1.48;1.38;;;10.50;99.90;;;;;;5025542;28;20400;-80
2022/04/24 07:10:10;;;;;;;1.63;1.10;;;10.50;99.90;;;;;;5032129;28;20216;-80
2022/04/24 07:12:47;;;;;;;1.92;1.38;;;10.40;99.90;;;;;;5031862;28;20200;-80
2022/04/24 07:15:14;;;;;;;1.00;1.00;;;10.40;99.90;;;;;;5027856;28;20232;-79
2022/04/24 07:17:43;;;;;;;1.10;1.10;;;10.40;99.90;;;;;;5036986;28;20202;-79
2022/04/24 07:20:11;;;;;;;1.83;1.73;;;10.40;99.90;;;;;;5027453;28;20226;-79
2022/04/24 07:22:47;;;;;;;1.98;1.80;;;10.30;99.90;;;;;;5036753;28;20199;-80
2022/04/24 07:25:14;;;;;;;1.88;1.77;;;10.40;99.90;;;;;;5028812;28;20713;-79
2022/04/24 07:27:41;;;;;;;1.25;1.10;;;10.40;99.90;;;;;;5032498;28;20304;-79
2022/04/24 07:30:13;;;;;;;1.30;1.20;;;10.50;99.90;;;;;;5031621;28;20317;-80
2022/04/24 07:32:46;;;;;;;1.67;1.58;;;10.50;99.90;;;;;;5033155;28;20218;-80
2022/04/24 07:35:14;;;;;;;1.25;1.25;;;10.60;99.90;;;;;;5035475;28;20230;-79
2022/04/24 07:37:41;;;;;;;1.13;1.13;;;10.70;99.90;;;;;;5027355;28;20207;-79
2022/04/24 07:40:11;;;;;;;1.25;1.25;;;10.80;99.90;;;;;;5023804;28;20226;-79
2022/04/24 07:42:52;;;;;;;1.55;1.15;;;10.90;99.90;;;;;;5031835;28;20199;-79
2022/04/24 07:45:21;;;;;;;1.20;1.10;;;11.00;99.90;;;;;;5029455;28;20215;-79
2022/04/24 07:47:49;;;;;;;1.35;1.25;;;10.90;99.90;;;;;;5032780;28;20212;-79
2022/04/24 07:50:17;;;;;;;1.20;1.20;;;10.90;99.90;;;;;;5032278;28;20632;-79
2022/04/24 07:52:46;;;;;;;1.65;1.55;;;10.90;99.90;;;;;;5038950;28;20192;-78
2022/04/24 07:55:15;;;;;;;1.23;1.17;;;11.00;99.90;;;;;;5030571;28;20223;-80
2022/04/24 07:57:42;;;;;;;1.15;1.15;;;11.10;99.90;;;;;;5032636;28;20678;-79
2022/04/24 08:00:10;;;;;;;1.05;1.05;;;11.10;99.90;;;;;;5025080;28;20262;-80
2022/04/24 08:02:50;;;;;;;1.25;1.15;;;11.00;99.90;;;;;;5039776;28;20223;-80
2022/04/24 08:05:25;;;;;;;1.00;1.00;;;11.00;99.90;;;;;;5029740;28;20220;-80
2022/04/24 08:07:52;;;;;;;1.15;1.10;;;11.00;99.90;;;;;;5032101;28;20191;-80
2022/04/24 08:10:19;;;;;;;1.60;1.50;;;11.00;99.90;;;;;;5023279;28;20231;-77
2022/04/24 08:12:46;;;;;;;1.00;1.00;;;11.10;99.90;;;;;;5030400;28;20658;-81
2022/04/24 08:15:13;;;;;;;1.08;1.08;;;11.20;99.90;;;;;;5032690;28;20224;-81
2022/04/24 08:17:40;;;;;;;0.90;0.90;;;11.20;99.90;;;;;;5026593;28;20242;-81
2022/04/24 08:20:11;;;;;;;0.90;0.90;;;11.20;99.90;;;;;;5026505;28;20220;-76
2022/04/24 08:22:42;;;;;;;1.00;1.00;;;11.20;99.90;;;;;;5023202;28;20206;-81
2022/04/24 08:25:10;;;;;;;1.30;1.20;;;11.30;99.90;;;;;;5040371;28;20231;-79
2022/04/24 08:27:38;;;;;;;1.02;1.02;;;11.40;99.90;;;;;;5031012;28;20661;-79
2022/04/24 08:30:07;;;;;;;1.17;1.08;;;11.60;99.90;;;;;;5036928;28;20222;-79
2022/04/24 08:32:34;;;;;;;1.02;1.02;;;11.90;99.90;;;;;;5048246;28;20211;-78
2022/04/24 08:35:02;;;;;;;1.30;1.20;;;12.20;99.90;;;;;;5028658;28;20220;-80
2022/04/24 08:37:32;;;;;;;1.00;1.00;;;12.50;99.90;;;;;;5031880;28;20694;-78
2022/04/24 08:39:59;;;;;;;1.23;1.10;;;12.60;99.90;;;;;;5036394;28;20227;-79
2022/04/24 08:42:27;;;;;;;1.48;1.38;;;12.70;99.90;;;;;;5026190;28;20204;-79
2022/04/24 08:44:55;;;;;;;0.98;0.98;;;13.50;99.90;;;;;;5021893;28;20730;-78
2022/04/24 08:47:24;;;;;;;1.17;1.08;;;14.30;99.90;;;;;;5028395;28;20191;-78
2022/04/24 08:49:54;;;;;;;0.90;0.90;;;15.10;99.90;;;;;;5026249;28;20736;-79
2022/04/24 08:52:21;;;;;;;0.80;0.80;;;15.30;99.90;;;;;;5028184;28;20200;-78
2022/04/24 08:54:50;;;;;;;0.90;0.90;;;14.70;99.90;;;;;;5022272;28;20247;-78
2022/04/24 08:57:18;;;;;;;0.90;0.90;;;14.10;99.90;;;;;;5025328;28;20216;-79
2022/04/24 08:59:45;;;;;;;0.90;0.90;;;13.60;99.90;;;;;;5023866;28;20713;-78
2022/04/24 09:02:13;;;;;;;1.10;1.00;;;13.30;99.90;;;;;;5031468;28;20200;-78
2022/04/24 09:04:41;;;;;;;1.40;0.93;;;13.20;99.90;;;;;;5031192;28;20223;-79
2022/04/24 09:07:10;;;;;;;0.95;0.95;;;13.20;99.90;;;;;;5029901;28;20191;-79
2022/04/24 09:09:42;;;;;;;0.90;0.90;;;13.20;99.90;;;;;;5027077;28;20219;-79
2022/04/24 09:12:13;;;;;;;0.98;0.98;;;13.10;99.90;;;;;;5026047;28;20574;-78
2022/04/24 09:14:40;;;;;;;0.90;0.90;;;13.10;99.90;;;;;;5024668;28;20223;-78
2022/04/24 09:17:15;;;;;;;0.90;0.90;;;13.20;99.90;;;;;;5025536;28;20228;-79
2022/04/24 09:19:43;;;;;;;0.80;0.80;;;13.50;99.90;;;;;;5023714;28;20230;-78
2022/04/24 09:22:11;;;;;;;1.20;1.10;;;13.70;99.90;;;;;;5028829;28;20206;-79
2022/04/24 09:24:42;;;;;;;1.00;0.90;;;13.70;99.90;;;;;;5021207;28;20229;-78
2022/04/24 09:27:12;;;;;;;1.20;1.10;;;13.60;99.90;;;;;;5028235;28;20196;-80
2022/04/24 09:29:41;;;;;;;1.00;1.00;;;13.60;99.90;;;;;;5021210;28;20223;-79
2022/04/24 09:32:12;;;;;;;10.00;5.15;;;14.00;99.90;;;;;;5020938;28;20282;-80
2022/04/24 09:34:40;;;;;;;2.45;1.80;;;14.20;99.90;;;;;;5027870;28;20328;-79
2022/04/24 09:37:09;;;;;;;1.17;1.05;;;14.20;99.90;;;;;;5026435;28;20318;-78
2022/04/24 09:39:37;;;;;;;1.10;1.00;;;14.10;99.90;;;;;;5022495;28;20278;-79
2022/04/24 09:42:09;;;;;;;0.95;0.95;;;14.00;99.90;;;;;;5022305;28;20199;-78
2022/04/24 09:44:42;;;;;;;0.82;0.82;;;13.90;99.90;;;;;;5021530;28;20251;-78
2022/04/24 09:47:10;;;;;;;0.88;0.88;;;13.70;99.90;;;;;;5020978;28;20188;-78
2022/04/24 09:49:39;;;;;;;0.70;0.70;;;13.60;99.90;;;;;;5025219;28;20220;-79
2022/04/24 09:52:13;;;;;;;1.08;1.08;;;13.30;99.90;;;;;;5029549;28;20614;-79
2022/04/24 09:54:41;;;;;;;1.00;1.00;;;13.10;99.90;;;;;;5021540;28;20221;-78
2022/04/24 09:57:10;;;;;;;1.00;1.00;;;13.00;99.90;;;;;;5024142;28;20270;-79
2022/04/24 09:59:38;;;;;;;0.70;0.70;;;13.00;99.90;;;;;;5047359;23;20318;-77
2022/04/24 10:02:08;;;;;;;0.75;0.75;;;13.00;99.90;;;;;;5080689;28;20209;-76
2022/04/24 10:04:38;;;;;;;1.23;1.13;;;13.00;99.90;;;;;;5076447;28;20304;-76
2022/04/24 10:07:07;;;;;;;0.93;0.90;;;12.90;99.90;;;;;;5082166;28;20276;-77
2022/04/24 10:09:35;;;;;;;1.00;1.00;;;13.00;99.90;;;;;;5077492;28;20233;-77
2022/04/24 10:12:05;;;;;;;0.88;0.88;;;13.00;99.90;;;;;;5058788;28;20190;-77
2022/04/24 10:14:33;;;;;;;1.00;1.00;;;13.30;99.90;;;;;;5055498;28;20354;-76
2022/04/24 10:17:43;;;;;;;0.80;0.80;;;13.70;99.90;;;;;;5059227;28;20210;-76
2022/04/24 10:20:23;;;;;;;1.17;1.10;;;13.60;99.90;;;;;;4993266;28;20723;-75
2022/04/24 10:22:55;;;;;;;0.90;0.90;;;13.30;99.90;;;;;;4997419;28;20204;-80
2022/04/24 10:25:31;;;;;;;0.82;0.82;;;13.10;99.90;;;;;;5036302;28;20464;-75
2022/04/24 10:28:10;;;;;;;1.20;0.80;;;13.00;99.90;;;;;;5062291;28;20245;-75
2022/04/24 10:30:37;;;;;;;0.80;0.70;;;12.90;99.90;;;;;;5058406;28;20693;-77
2022/04/24 10:33:18;;;;;;;0.82;0.82;;;12.90;99.90;;;;;;5062954;28;20584;-77
2022/04/24 10:35:52;;;;;;;0.80;0.80;;;12.90;99.90;;;;;;5057642;28;20223;-76
2022/04/24 10:38:21;;;;;;;0.90;0.90;;;12.90;99.90;;;;;;5059182;28;20712;-76
2022/04/24 10:41:02;;;;;;;0.93;0.93;;;12.80;99.90;;;;;;5061878;28;20254;-77
2022/04/24 10:43:39;;;;;;;0.70;0.70;;;12.70;99.90;;;;;;5058794;28;20195;-78
2022/04/24 10:46:17;;;;;;;0.70;0.70;;;12.80;99.90;;;;;;5052476;28;20219;-75
2022/04/24 10:48:47;;;;;;;2.88;0.90;;;12.80;99.90;;;;;;5064341;28;20255;-76
2022/04/24 10:51:15;;;;;;;1.30;1.20;;;12.80;99.90;;;;;;5045625;28;20219;-75
2022/04/24 10:53:52;;;;;;;1.38;0.90;;;12.70;99.90;;;;;;5042893;28;20662;-76
2022/04/24 10:56:20;;;;;;;1.00;1.00;;;12.80;99.90;;;;;;5037546;28;20226;-76
2022/04/24 10:58:49;;;;;;;1.02;1.00;;;12.70;99.90;;;;;;5035195;28;20574;-77
2022/04/24 11:01:17;;;;;;;1.00;1.00;;;12.50;99.90;;;;;;5039988;28;20686;-76
2022/04/24 11:03:47;;;;;;;1.83;1.13;;;12.40;99.90;;;;;;5039800;28;20662;-75
2022/04/24 11:06:23;;;;;;;0.80;0.80;;;12.30;99.90;;;;;;5045164;28;20215;-74
2022/04/24 11:08:51;;;;;;;1.08;1.08;;;12.40;99.90;;;;;;5038852;28;20708;-75
2022/04/24 11:11:19;;;;;;;1.02;1.02;;;12.40;99.90;;;;;;5044149;28;20238;-75
2022/04/24 11:13:47;;;;;;;0.93;0.93;;;12.50;99.90;;;;;;5038078;28;20196;-76
2022/04/24 11:16:14;;;;;;;1.17;0.82;;;12.50;99.90;;;;;;5036546;28;20650;-75
2022/04/24 11:18:48;;;;;;;0.90;0.90;;;12.40;99.90;;;;;;5035226;28;20208;-75
2022/04/24 11:21:19;;;;;;;0.80;0.80;;;12.40;99.90;;;;;;5039624;28;20331;-76
2022/04/24 11:23:47;;;;;;;1.20;1.10;;;12.40;99.90;;;;;;5037651;28;20258;-76
2022/04/24 11:26:14;;;;;;;0.73;0.73;;;12.40;99.90;;;;;;5040545;28;20242;-75
2022/04/24 11:28:43;;;;;;;0.70;0.70;;;12.60;99.90;;;;;;5038167;28;20199;-78
2022/04/24 11:31:16;;;;;;;1.00;1.00;;;12.70;99.90;;;;;;5052712;28;20221;-76
2022/04/24 11:33:59;;;;;;;0.70;0.70;;;13.00;99.90;;;;;;5057058;28;20698;-74
2022/04/24 11:36:31;;;;;;;0.90;0.90;;;13.20;99.90;;;;;;5046651;28;20215;-75
2022/04/24 11:39:00;;;;;;;0.90;0.90;;;13.40;99.90;;;;;;5043826;28;20205;-75
2022/04/24 11:41:29;;;;;;;0.90;0.90;;;13.50;99.90;;;;;;5035253;28;20280;-75
2022/04/24 11:44:01;;;;;;;0.80;0.80;;;13.70;99.90;;;;;;5041537;28;20239;-76
2022/04/24 11:51:59;;;;;;;0.70;0.70;;;15.00;99.90;;;;;;5062054;28;20221;-78
2022/04/24 11:54:28;;;;;;;0.70;0.70;;;15.10;99.90;;;;;;5060364;28;20199;-77
2022/04/24 11:56:55;;;;;;;0.70;0.70;;;15.20;99.90;;;;;;5061898;28;20348;-78
2022/04/24 11:59:23;;;;;;;0.73;0.73;;;15.30;99.90;;;;;;5062761;28;20194;-80
2022/04/24 12:01:57;;;;;;;1.13;1.13;;;15.70;99.90;;;;;;5060803;28;20222;-78
2022/04/24 12:04:31;;;;;;;0.80;0.80;;;16.00;99.90;;;;;;5058670;28;20435;-75
2022/04/24 12:07:03;;;;;;;1.20;0.80;;;16.00;99.90;;;;;;5057732;28;20221;-75
2022/04/24 12:09:30;;;;;;;0.77;0.77;;;16.00;99.90;;;;;;5054583;28;20216;-76
2022/04/24 12:12:08;;;;;;;0.80;0.80;;;15.60;99.90;;;;;;5059178;28;20257;-80
2022/04/24 12:14:36;;;;;;;0.63;0.60;;;15.30;99.90;;;;;;5056443;28;20207;-78
2022/04/24 12:17:04;;;;;;;0.73;0.73;;;15.20;99.90;;;;;;5053271;28;20221;-76
2022/04/24 12:19:34;;;;;;;0.70;0.70;;;15.30;99.90;;;;;;5057640;28;20202;-80
2022/04/24 12:22:07;;;;;;;0.60;0.60;;;15.60;99.90;;;;;;5057501;28;20737;-75
2022/04/24 12:24:44;;;;;;;0.57;0.57;;;15.50;99.90;;;;;;5057315;28;20191;-75
2022/04/24 12:27:14;;;;;;;0.60;0.60;;;15.10;99.90;;;;;;5056167;28;20222;-78
2022/04/24 12:29:45;;;;;;;0.80;0.80;;;15.00;99.90;;;;;;5059691;28;20201;-77
2022/04/24 12:32:14;;;;;;;0.80;0.80;;;15.30;99.90;;;;;;5055999;28;20222;-75
2022/04/24 12:34:43;;;;;;;0.70;0.70;;;15.50;99.90;;;;;;5052588;28;20199;-76
2022/04/24 12:37:11;;;;;;;0.70;0.70;;;15.90;99.90;;;;;;5054711;28;20268;-76
2022/04/24 12:39:38;;;;;;;0.50;0.50;;;15.50;99.90;;;;;;5057573;28;20240;-76
2022/04/24 12:42:15;;;;;;;0.70;0.70;;;15.70;99.90;;;;;;5059287;28;20209;-75
2022/04/24 12:44:42;;;;;;;0.60;0.60;;;16.20;99.90;;;;;;5052916;28;20221;-75
2022/04/24 12:47:09;;;;;;;0.65;0.65;;;15.30;99.90;;;;;;5054219;28;20771;-79
2022/04/24 12:49:36;;;;;;;0.50;0.50;;;15.10;99.90;;;;;;5045194;28;20214;-76
2022/04/24 12:52:05;;;;;;;0.80;0.80;;;15.10;99.90;;;;;;5044389;28;20230;-77
2022/04/24 12:54:32;;;;;;;0.57;0.57;;;15.10;99.90;;;;;;5055176;28;20267;-77
2022/04/24 12:57:00;;;;;;;0.70;0.70;;;15.10;99.90;;;;;;5056295;28;20589;-79
2022/04/24 12:59:27;;;;;;;0.70;0.70;;;15.30;99.90;;;;;;5056544;28;20210;-78
2022/04/24 13:01:54;;;;;;;0.80;0.80;;;15.40;99.90;;;;;;5053401;28;20219;-74